Time;durP1;ratioP1;P1;durP2;ratioP2;P2;SDS_P1;SDS_P2;PMS_P1;PMS_P2;Temp;Humidity;BMP_temperature;BMP_pressure;BME280_temperature;BME280_humidity;BME280_pressure;Samples;Min_cycle;Max_cycle;Signal;HPM_P1;HPM_P2
2023/08/06 00:00:09;;;;;;;21.05;10.07;;;512.80;2380.80;;;;;;5089260;28;20087;-66
2023/08/06 00:02:38;;;;;;;14.90;9.65;;;512.90;2380.80;;;;;;5089348;28;20494;-69
2023/08/06 00:05:04;;;;;;;14.15;9.48;;;512.90;2380.80;;;;;;5089567;28;20031;-68
2023/08/06 00:07:29;;;;;;;13.10;9.40;;;512.90;2380.80;;;;;;5089643;28;20553;-68
2023/08/06 00:09:55;;;;;;;13.63;10.25;;;537.60;2406.40;;;;;;5089481;28;20024;-69
2023/08/06 00:12:21;;;;;;;12.75;9.77;;;537.60;2406.40;;;;;;5089765;28;20470;-67
2023/08/06 00:14:51;;;;;;;16.75;12.35;;;537.80;2406.40;;;;;;5089133;28;20021;-68
2023/08/06 00:17:17;;;;;;;15.90;12.77;;;537.60;2406.40;;;;;;5086317;28;20024;-68
2023/08/06 00:19:42;;;;;;;15.55;12.80;;;537.70;2406.40;;;;;;5089769;28;20077;-68
2023/08/06 00:22:08;;;;;;;17.42;12.82;;;512.90;2380.80;;;;;;5088364;28;20020;-69
2023/08/06 00:24:35;;;;;;;15.32;12.50;;;512.90;2380.80;;;;;;5089855;28;20301;-68
2023/08/06 00:27:00;;;;;;;16.17;12.20;;;512.90;2380.80;;;;;;5089840;28;20423;-68
2023/08/06 00:29:26;;;;;;;22.30;12.50;;;512.90;2380.80;;;;;;5089685;28;20102;-69
2023/08/06 00:31:52;;;;;;;23.73;14.32;;;512.90;2380.80;;;;;;5089531;28;20032;-68
2023/08/06 00:34:18;;;;;;;15.85;13.10;;;512.70;2380.80;;;;;;5089515;28;20028;-68
2023/08/06 00:36:43;;;;;;;15.75;12.07;;;512.40;2380.80;;;;;;5089535;28;20070;-68
2023/08/06 00:39:09;;;;;;;14.02;11.43;;;512.50;2380.80;;;;;;5089525;28;20487;-68
2023/08/06 00:41:35;;;;;;;13.98;11.32;;;512.50;2380.80;;;;;;5089311;28;20062;-68
2023/08/06 00:44:00;;;;;;;16.25;12.02;;;512.30;2380.80;;;;;;5089895;28;20020;-69
2023/08/06 00:46:27;;;;;;;12.45;10.20;;;512.50;2380.80;;;;;;5089168;28;20031;-69
2023/08/06 00:48:52;;;;;;;12.25;9.68;;;512.60;2380.80;;;;;;5094445;28;20031;-68
2023/08/06 00:51:19;;;;;;;17.45;11.23;;;512.70;2380.80;;;;;;5096095;28;20035;-68
2023/08/06 00:53:46;;;;;;;16.75;11.70;;;512.60;2380.80;;;;;;5096129;28;20099;-69
2023/08/06 00:56:13;;;;;;;15.77;11.13;;;512.70;2380.80;;;;;;5096248;28;20024;-69
2023/08/06 00:58:39;;;;;;;17.52;13.10;;;512.70;2380.80;;;;;;5096256;28;20030;-68
2023/08/06 01:01:05;;;;;;;16.80;13.35;;;512.80;2380.80;;;;;;5095963;28;20462;-69
2023/08/06 01:03:31;;;;;;;16.50;11.98;;;512.70;2380.80;;;;;;5096097;28;20123;-68
2023/08/06 01:05:57;;;;;;;13.90;11.70;;;512.80;2380.80;;;;;;5095906;28;20123;-68
2023/08/06 01:08:49;;;;;;;16.52;12.55;;;512.80;2380.80;;;;;;5096283;28;20052;-68
2023/08/06 01:11:49;;;;;;;16.70;12.23;;;512.90;2380.80;;;;;;5096821;28;20044;-68
2023/08/06 01:14:33;;;;;;;16.95;11.07;;;512.90;2380.80;;;;;;5096371;28;20103;-69
2023/08/06 01:17:01;;;;;;;16.08;11.15;;;512.70;2380.80;;;;;;5095887;28;20024;-68
2023/08/06 01:19:27;;;;;;;19.15;11.63;;;512.60;2380.80;;;;;;5095998;28;20028;-68
2023/08/06 01:21:52;;;;;;;14.27;10.88;;;512.70;2380.80;;;;;;5096225;28;20074;-68
2023/08/06 01:24:18;;;;;;;11.88;10.57;;;512.70;2380.80;;;;;;5096050;28;20430;-69
2023/08/06 01:26:59;;;;;;;31.02;13.52;;;512.60;2380.80;;;;;;5095868;28;20470;-68
2023/08/06 01:29:52;;;;;;;16.30;13.68;;;512.70;2380.80;;;;;;5095722;28;20485;-68
2023/08/06 01:32:20;;;;;;;20.38;13.30;;;512.60;2380.80;;;;;;5052982;28;20067;-67
2023/08/06 01:34:47;;;;;;;16.70;13.07;;;512.70;2380.80;;;;;;5053465;28;20041;-68
2023/08/06 01:37:13;;;;;;;15.07;12.73;;;512.80;2380.80;;;;;;5053393;28;20140;-69
2023/08/06 01:39:43;;;;;;;20.25;12.63;;;512.70;2380.80;;;;;;5053819;28;20029;-70
2023/08/06 01:42:09;;;;;;;14.48;12.23;;;512.90;2380.80;;;;;;5053175;28;20088;-68
2023/08/06 01:44:35;;;;;;;20.83;12.88;;;512.90;2380.80;;;;;;5053071;28;20040;-69
2023/08/06 01:47:00;;;;;;;13.15;11.75;;;512.90;2380.80;;;;;;5036684;28;20033;-68
2023/08/06 01:49:26;;;;;;;15.27;12.38;;;512.90;2380.80;;;;;;5053208;28;20503;-68
2023/08/06 01:51:52;;;;;;;16.52;11.75;;;512.80;2380.80;;;;;;5053656;28;20024;-69
2023/08/06 01:54:17;;;;;;;19.15;9.93;;;512.70;2380.80;;;;;;5052869;28;20024;-68
2023/08/06 01:56:43;;;;;;;10.85;9.55;;;512.70;2380.80;;;;;;5052859;28;20475;-68
2023/08/06 01:59:09;;;;;;;10.82;9.55;;;512.70;2380.80;;;;;;5051028;28;20036;-69
2023/08/06 02:01:35;;;;;;;10.68;9.57;;;512.80;2380.80;;;;;;5048971;28;20064;-68
2023/08/06 02:04:00;;;;;;;12.38;9.88;;;512.70;2380.80;;;;;;5050066;28;20037;-68
2023/08/06 02:06:26;;;;;;;14.10;10.00;;;512.80;2380.80;;;;;;5048979;28;20653;-69
2023/08/06 02:08:52;;;;;;;12.38;9.30;;;512.80;2380.80;;;;;;5064548;28;20040;-68
2023/08/06 02:11:18;;;;;;;13.50;9.45;;;512.80;2380.80;;;;;;5091651;28;20074;-68
2023/08/06 02:13:44;;;;;;;11.02;8.80;;;512.80;2380.80;;;;;;5091957;28;20085;-68
2023/08/06 02:16:09;;;;;;;12.50;9.13;;;512.70;2380.80;;;;;;5091935;28;20028;-67
2023/08/06 02:18:35;;;;;;;12.07;8.50;;;512.60;2380.80;;;;;;5091627;28;20024;-69
2023/08/06 02:21:01;;;;;;;9.85;8.45;;;512.60;2380.80;;;;;;5092183;28;20533;-68
2023/08/06 02:23:27;;;;;;;14.35;8.60;;;512.70;2380.80;;;;;;5091768;28;20347;-68
2023/08/06 02:31:25;;;;;;;9.50;8.45;;;512.60;2380.80;;;;;;5353309;22;20054;-68
2023/08/06 02:33:53;;;;;;;11.18;9.20;;;512.60;2380.80;;;;;;5031486;28;20374;-68
2023/08/06 02:36:19;;;;;;;9.20;7.47;;;512.50;2380.80;;;;;;5031231;28;20029;-67
2023/08/06 02:38:44;;;;;;;8.32;6.15;;;512.50;2380.80;;;;;;5031071;28;20032;-67
2023/08/06 02:41:10;;;;;;;8.32;6.47;;;512.40;2380.80;;;;;;5031320;28;20415;-68
2023/08/06 02:43:36;;;;;;;11.02;6.43;;;512.20;2380.80;;;;;;5031480;28;20382;-68
2023/08/06 02:46:01;;;;;;;8.77;6.35;;;512.10;2380.80;;;;;;5031267;28;20104;-66
2023/08/06 02:48:27;;;;;;;7.15;6.28;;;487.30;2380.80;;;;;;5031161;28;20029;-68
2023/08/06 02:50:56;;;;;;;7.47;6.10;;;487.30;2380.80;;;;;;5031045;28;20021;-67
2023/08/06 02:53:22;;;;;;;12.38;5.93;;;487.20;2380.80;;;;;;5031186;28;20029;-67
2023/08/06 02:55:48;;;;;;;8.30;5.20;;;487.20;2380.80;;;;;;5031008;28;20025;-67
2023/08/06 02:58:15;;;;;;;9.98;5.28;;;487.10;2380.80;;;;;;5030998;28;20029;-67
2023/08/06 03:00:41;;;;;;;6.47;5.15;;;487.00;2380.80;;;;;;5030758;28;20037;-66
2023/08/06 03:03:06;;;;;;;7.13;5.55;;;487.10;2380.80;;;;;;5030611;28;20026;-68
2023/08/06 03:05:32;;;;;;;6.03;5.05;;;487.00;2380.80;;;;;;5030927;28;20099;-67
2023/08/06 03:07:58;;;;;;;6.70;5.63;;;487.00;2380.80;;;;;;5030877;28;20349;-68
2023/08/06 03:10:23;;;;;;;6.43;5.30;;;487.00;2380.80;;;;;;5029525;28;20063;-67
2023/08/06 03:12:49;;;;;;;7.75;5.43;;;486.90;2380.80;;;;;;5028371;28;20033;-68
2023/08/06 03:15:15;;;;;;;8.27;5.22;;;486.90;2380.80;;;;;;5030528;28;20022;-68
2023/08/06 03:17:41;;;;;;;6.78;5.53;;;486.90;2380.80;;;;;;5030524;28;20067;-67
2023/08/06 03:20:07;;;;;;;10.55;7.88;;;486.90;2380.80;;;;;;5030432;28;20100;-68
2023/08/06 03:22:32;;;;;;;9.73;7.13;;;486.90;2380.80;;;;;;5030614;28;20064;-67
2023/08/06 03:24:58;;;;;;;11.27;8.43;;;486.90;2380.80;;;;;;5030127;28;20053;-67
2023/08/06 03:27:24;;;;;;;7.80;6.63;;;486.90;2380.80;;;;;;5030221;28;20498;-66
2023/08/06 03:29:50;;;;;;;10.18;8.18;;;486.90;2380.80;;;;;;5030066;28;20030;-67
2023/08/06 03:32:16;;;;;;;10.15;8.45;;;486.80;2380.80;;;;;;5029932;28;20025;-67
2023/08/06 03:34:42;;;;;;;10.95;8.35;;;486.90;2380.80;;;;;;5030064;28;20467;-67
2023/08/06 03:37:07;;;;;;;11.38;8.00;;;486.90;2380.80;;;;;;5029800;28;20037;-68
2023/08/06 03:39:33;;;;;;;10.60;8.30;;;486.90;2380.80;;;;;;5030264;28;20139;-66
2023/08/06 03:41:59;;;;;;;10.00;7.15;;;486.80;2380.80;;;;;;5030029;28;20037;-68
2023/08/06 03:44:26;;;;;;;10.57;7.53;;;486.90;2380.80;;;;;;5029935;28;20021;-68
2023/08/06 03:46:52;;;;;;;9.88;7.43;;;486.80;2380.80;;;;;;5030167;28;20467;-67
2023/08/06 03:49:18;;;;;;;10.70;7.88;;;487.00;2380.80;;;;;;5029707;28;20067;-67
2023/08/06 03:51:43;;;;;;;11.75;7.70;;;487.00;2380.80;;;;;;5029845;28;20037;-67
2023/08/06 03:54:09;;;;;;;9.50;7.95;;;487.00;2380.80;;;;;;5029799;28;20017;-68
2023/08/06 03:56:35;;;;;;;9.30;7.93;;;487.00;2380.80;;;;;;5029489;28;20034;-68
2023/08/06 03:59:00;;;;;;;12.65;7.45;;;487.00;2380.80;;;;;;5030249;28;20018;-67
2023/08/06 04:01:26;;;;;;;9.60;7.88;;;487.10;2380.80;;;;;;5029350;28;20044;-67
2023/08/06 04:03:52;;;;;;;12.80;6.93;;;487.10;2380.80;;;;;;5029850;28;20061;-67
2023/08/06 04:06:17;;;;;;;15.65;7.15;;;487.10;2380.80;;;;;;5029488;28;20034;-67
2023/08/06 04:08:43;;;;;;;8.18;6.68;;;487.20;2380.80;;;;;;5029608;28;20424;-67
2023/08/06 04:11:09;;;;;;;9.30;6.57;;;487.20;2380.80;;;;;;5029260;28;20050;-68
2023/08/06 04:13:34;;;;;;;9.82;7.28;;;512.00;2380.80;;;;;;5029336;28;20021;-67
2023/08/06 04:16:04;;;;;;;9.57;6.93;;;512.00;2380.80;;;;;;5029710;28;20032;-68
2023/08/06 04:18:29;;;;;;;10.85;6.05;;;512.10;2380.80;;;;;;5029731;28;20167;-67
2023/08/06 04:20:57;;;;;;;11.57;5.95;;;512.20;2380.80;;;;;;5029182;28;20112;-67
2023/08/06 04:23:23;;;;;;;9.95;6.03;;;512.30;2380.80;;;;;;5029189;28;20025;-67
2023/08/06 04:25:49;;;;;;;8.02;5.80;;;512.40;2380.80;;;;;;5029100;28;20487;-67
2023/08/06 04:28:14;;;;;;;9.23;6.15;;;512.50;2380.80;;;;;;5029207;28;20025;-68
2023/08/06 04:30:40;;;;;;;8.07;5.43;;;512.70;2380.80;;;;;;5029108;28;20514;-68
2023/08/06 04:33:06;;;;;;;7.78;6.03;;;512.80;2380.80;;;;;;5029074;28;20117;-67
2023/08/06 04:35:31;;;;;;;8.00;6.03;;;512.80;2380.80;;;;;;5028053;28;20514;-67
2023/08/06 04:37:57;;;;;;;7.47;5.60;;;512.80;2380.80;;;;;;5029194;28;20031;-67
2023/08/06 04:40:23;;;;;;;8.05;6.00;;;512.90;2380.80;;;;;;5029046;28;20489;-68
2023/08/06 04:42:48;;;;;;;8.05;5.55;;;537.60;2406.40;;;;;;5028904;28;20036;-67
2023/08/06 04:45:14;;;;;;;8.63;4.97;;;537.90;2406.40;;;;;;5028791;28;20493;-68
2023/08/06 04:47:40;;;;;;;7.45;5.70;;;537.90;2406.40;;;;;;5029269;28;20022;-68
2023/08/06 04:50:06;;;;;;;11.35;5.35;;;537.90;2406.40;;;;;;5028929;28;20030;-67
2023/08/06 04:52:32;;;;;;;7.97;6.13;;;537.70;2406.40;;;;;;5029194;28;20394;-67
2023/08/06 04:54:58;;;;;;;8.73;5.93;;;512.90;2380.80;;;;;;5028917;28;20017;-67
2023/08/06 04:57:23;;;;;;;12.32;6.20;;;537.70;2406.40;;;;;;5028718;28;20086;-68
2023/08/06 04:59:49;;;;;;;7.88;5.53;;;537.70;2406.40;;;;;;5029005;28;20048;-67
2023/08/06 05:02:15;;;;;;;7.97;5.93;;;537.80;2406.40;;;;;;5028739;28;20022;-68
2023/08/06 05:04:40;;;;;;;7.93;6.65;;;537.90;2406.40;;;;;;5028993;28;20026;-67
2023/08/06 05:07:06;;;;;;;10.20;6.13;;;537.80;2406.40;;;;;;5028472;28;20387;-68
2023/08/06 05:09:32;;;;;;;11.43;6.30;;;537.70;2406.40;;;;;;5028847;28;20034;-68
2023/08/06 05:12:00;;;;;;;6.70;5.82;;;537.70;2406.40;;;;;;5028668;28;20043;-67
2023/08/06 05:14:26;;;;;;;10.00;6.82;;;537.60;2406.40;;;;;;5028801;28;20025;-68
2023/08/06 05:16:51;;;;;;;10.93;6.30;;;537.60;2406.40;;;;;;5029057;28;20099;-67
2023/08/06 05:19:17;;;;;;;8.60;6.03;;;537.60;2406.40;;;;;;5028539;28;20534;-67
2023/08/06 05:21:43;;;;;;;7.45;6.60;;;537.70;2406.40;;;;;;5028760;28;20032;-67
2023/08/06 05:24:08;;;;;;;7.88;6.43;;;537.80;2406.40;;;;;;5028912;28;20021;-67
2023/08/06 05:26:34;;;;;;;8.02;6.22;;;537.80;2406.40;;;;;;5028112;28;20368;-68
2023/08/06 05:29:00;;;;;;;9.18;6.50;;;538.00;2406.40;;;;;;5027179;28;20486;-67
2023/08/06 05:31:28;;;;;;;9.88;7.30;;;538.00;2406.40;;;;;;5028114;28;20073;-67
2023/08/06 05:33:54;;;;;;;16.58;7.57;;;538.20;2406.40;;;;;;5028824;28;20048;-67
2023/08/06 05:36:21;;;;;;;9.55;7.05;;;563.20;2432.00;;;;;;5032059;28;20471;-68
2023/08/06 05:38:46;;;;;;;9.02;7.00;;;563.60;2432.00;;;;;;5032243;28;20068;-66
2023/08/06 05:41:12;;;;;;;8.15;6.53;;;589.20;2432.00;;;;;;5032143;28;20034;-68
2023/08/06 05:43:38;;;;;;;8.07;6.82;;;589.70;2432.00;;;;;;5032218;28;20029;-68
2023/08/06 05:46:04;;;;;;;10.68;7.78;;;614.40;2432.00;;;;;;5032382;28;20029;-67
2023/08/06 05:48:29;;;;;;;68.28;47.80;;;615.10;2432.00;;;;;;5031359;28;20368;-67
2023/08/06 05:50:55;;;;;;;53.22;33.53;;;640.00;2432.00;;;;;;5031987;28;20025;-67
2023/08/06 05:53:21;;;;;;;43.50;30.88;;;666.20;2432.00;;;;;;5032314;28;20029;-67
2023/08/06 05:56:14;;;;;;;29.02;23.13;;;666.00;2432.00;;;;;;5040816;28;20020;-68
2023/08/06 05:59:07;;;;;;;118.72;106.85;;;666.30;2432.00;;;;;;5058941;28;20033;-67
2023/08/06 06:01:44;;;;;;;36.75;33.47;;;743.00;2432.00;;;;;;5059333;28;20046;-68
2023/08/06 06:07:57;;;;;;;9.68;8.77;;;742.80;2355.20;;;;;;5061082;28;20040;-68
2023/08/06 06:10:25;;;;;;;11.95;10.05;;;691.40;2432.00;;;;;;5021894;22;20416;-71
2023/08/06 06:12:50;;;;;;;10.50;9.43;;;665.60;2432.00;;;;;;4992408;28;20031;-72
2023/08/06 06:15:16;;;;;;;10.27;8.88;;;640.40;2432.00;;;;;;4992497;28;20361;-71
2023/08/06 06:17:42;;;;;;;10.52;9.23;;;640.40;2432.00;;;;;;4992205;28;20034;-70
2023/08/06 06:20:08;;;;;;;11.38;10.23;;;743.00;2432.00;;;;;;4992281;28;20018;-70
2023/08/06 06:22:33;;;;;;;11.73;10.63;;;845.20;2099.20;;;;;;4991992;28;20037;-71
2023/08/06 06:24:59;;;;;;;21.70;19.67;;;819.30;2073.60;;;;;;4992052;28;20488;-70
2023/08/06 06:27:25;;;;;;;15.57;14.13;;;793.60;2124.80;;;;;;4992107;28;20030;-72
2023/08/06 06:29:52;;;;;;;14.15;12.88;;;743.00;2201.60;;;;;;4992103;28;20098;-71
2023/08/06 06:32:18;;;;;;;11.85;10.15;;;717.30;2278.40;;;;;;4991921;28;20049;-71
2023/08/06 06:34:43;;;;;;;12.20;10.73;;;716.90;2329.60;;;;;;4992072;28;20061;-70
2023/08/06 06:37:09;;;;;;;10.45;9.45;;;716.90;2406.40;;;;;;4991674;28;20050;-72
2023/08/06 06:39:35;;;;;;;10.20;9.18;;;692.10;2432.00;;;;;;4991721;28;20081;-71
2023/08/06 06:42:00;;;;;;;10.88;9.88;;;691.30;2432.00;;;;;;4992020;28;20018;-70
2023/08/06 06:44:26;;;;;;;10.07;8.88;;;666.30;2432.00;;;;;;4991100;28;20412;-71
2023/08/06 06:46:52;;;;;;;12.52;10.20;;;666.10;2432.00;;;;;;4991640;28;20076;-71
2023/08/06 06:49:17;;;;;;;11.52;9.98;;;640.90;2432.00;;;;;;4992137;28;20198;-70
2023/08/06 06:51:43;;;;;;;14.88;11.05;;;640.50;2432.00;;;;;;4992304;28;20038;-71
2023/08/06 06:54:09;;;;;;;11.38;10.18;;;640.60;2432.00;;;;;;4992092;28;20093;-70
2023/08/06 06:56:34;;;;;;;10.77;9.68;;;640.70;2432.00;;;;;;4991983;28;20081;-70
2023/08/06 06:59:00;;;;;;;12.00;10.65;;;640.90;2432.00;;;;;;4991912;28;20109;-70
2023/08/06 07:01:26;;;;;;;13.18;11.88;;;666.00;2432.00;;;;;;4991863;28;20113;-71
2023/08/06 07:03:52;;;;;;;12.25;10.85;;;716.80;2432.00;;;;;;4992045;28;20560;-70
2023/08/06 07:06:18;;;;;;;12.65;11.07;;;819.60;2176.00;;;;;;4991776;28;20030;-72
2023/08/06 07:08:44;;;;;;;10.20;9.25;;;896.90;1868.80;;;;;;4991644;28;20038;-71
2023/08/06 07:11:10;;;;;;;10.82;9.93;;;871.20;1868.80;;;;;;4991696;28;20081;-71
2023/08/06 07:13:36;;;;;;;10.77;9.68;;;844.80;1996.80;;;;;;4991616;28;20295;-70
2023/08/06 07:16:02;;;;;;;10.57;9.57;;;819.70;1971.20;;;;;;4989709;28;20042;-70
2023/08/06 07:18:28;;;;;;;10.95;9.95;;;819.30;1996.80;;;;;;4991496;28;20030;-71
2023/08/06 07:20:55;;;;;;;43.72;38.63;;;794.10;2048.00;;;;;;4991432;28;20101;-71
2023/08/06 07:23:23;;;;;;;12.10;10.95;;;768.60;2073.60;;;;;;4991483;28;20037;-71
2023/08/06 07:25:49;;;;;;;10.93;9.93;;;743.10;2099.20;;;;;;4991107;28;20032;-70
2023/08/06 07:28:15;;;;;;;15.85;14.18;;;742.90;2150.40;;;;;;4991317;28;20392;-72
2023/08/06 07:30:42;;;;;;;13.02;11.75;;;742.50;2176.00;;;;;;4991055;28;20030;-71
2023/08/06 07:33:08;;;;;;;13.40;12.07;;;717.70;2201.60;;;;;;4991103;28;20388;-71
2023/08/06 07:35:34;;;;;;;11.73;10.57;;;717.60;2201.60;;;;;;4991071;28;20022;-71
2023/08/06 07:38:00;;;;;;;18.70;17.10;;;717.40;2227.20;;;;;;4991384;28;20038;-71
2023/08/06 07:40:25;;;;;;;20.02;18.33;;;717.30;2252.80;;;;;;4990876;28;20042;-71
2023/08/06 07:42:51;;;;;;;11.05;10.05;;;716.90;2278.40;;;;;;4990948;28;20027;-73
2023/08/06 07:45:17;;;;;;;9.82;8.23;;;716.80;2304.00;;;;;;5000176;28;20021;-73
2023/08/06 07:47:43;;;;;;;9.63;8.65;;;717.00;2278.40;;;;;;5000319;28;20591;-70
2023/08/06 07:50:09;;;;;;;10.10;9.10;;;743.00;2176.00;;;;;;5009090;28;20494;-72
2023/08/06 07:52:35;;;;;;;8.40;7.70;;;870.50;1894.40;;;;;;5010600;28;20034;-72
2023/08/06 07:55:04;;;;;;;7.68;6.93;;;870.60;1817.60;;;;;;5010852;28;20492;-72
2023/08/06 07:57:31;;;;;;;8.32;7.53;;;844.90;1894.40;;;;;;5009954;28;20029;-71
2023/08/06 07:59:56;;;;;;;8.25;7.45;;;819.60;1894.40;;;;;;5010216;28;20021;-71
2023/08/06 08:02:22;;;;;;;6.93;6.22;;;794.00;1971.20;;;;;;5010559;28;20494;-71
2023/08/06 08:04:48;;;;;;;64.63;58.10;;;768.90;1971.20;;;;;;5010147;28;20415;-71
2023/08/06 08:07:14;;;;;;;19.55;17.75;;;820.00;1920.00;;;;;;5010319;28;20041;-71
2023/08/06 08:09:40;;;;;;;9.07;8.25;;;870.90;1843.20;;;;;;5009907;28;20050;-71
2023/08/06 08:12:06;;;;;;;8.95;8.25;;;896.40;1766.40;;;;;;5010140;28;20033;-71
2023/08/06 08:14:37;;;;;;;6.95;6.25;;;896.80;1740.80;;;;;;5010446;28;20048;-71
2023/08/06 08:17:04;;;;;;;7.65;6.93;;;870.50;1817.60;;;;;;5010079;28;20061;-70
2023/08/06 08:19:33;;;;;;;7.13;6.53;;;;;;;;;;5010036;28;20025;-72
2023/08/06 08:21:59;;;;;;;10.32;9.38;;;819.20;1920.00;;;;;;5009983;28;20156;-73
2023/08/06 08:24:25;;;;;;;9.48;7.15;;;768.80;1971.20;;;;;;5010012;28;20091;-71
2023/08/06 08:26:51;;;;;;;7.47;6.68;;;768.00;2022.40;;;;;;5009802;28;20507;-71
2023/08/06 08:29:17;;;;;;;23.40;21.40;;;717.70;2099.20;;;;;;5009912;28;20371;-70
2023/08/06 08:31:43;;;;;;;10.48;9.38;;;716.90;2176.00;;;;;;5009923;28;20026;-70
2023/08/06 08:34:09;;;;;;;8.45;7.65;;;692.00;2176.00;;;;;;5009537;28;20480;-71
2023/08/06 08:36:35;;;;;;;12.30;11.20;;;691.90;2150.40;;;;;;5009678;28;20109;-71
2023/08/06 08:39:00;;;;;;;7.60;6.90;;;717.60;2176.00;;;;;;5009959;28;20037;-73
2023/08/06 08:41:30;;;;;;;6.57;5.95;;;743.00;2124.80;;;;;;4991952;28;20425;-70
2023/08/06 08:43:58;;;;;;;7.30;6.20;;;768.60;2022.40;;;;;;5009560;28;20036;-71
2023/08/06 08:46:26;;;;;;;7.82;5.80;;;794.00;1920.00;;;;;;5009694;28;20038;-70
2023/08/06 08:48:53;;;;;;;7.40;6.70;;;794.40;1894.40;;;;;;5009624;28;20459;-70
2023/08/06 08:51:20;;;;;;;7.95;7.18;;;819.30;1894.40;;;;;;5009481;28;20034;-70
2023/08/06 08:53:49;;;;;;;8.45;7.57;;;794.50;1920.00;;;;;;5009695;28;20026;-72
2023/08/06 08:56:15;;;;;;;7.32;6.57;;;794.20;1920.00;;;;;;5009567;28;20034;-72
2023/08/06 08:58:41;;;;;;;10.63;9.52;;;794.20;1920.00;;;;;;5009464;28;20030;-71
2023/08/06 09:01:09;;;;;;;12.00;8.88;;;793.90;1894.40;;;;;;5009348;28;20033;-70
2023/08/06 09:03:36;;;;;;;7.55;6.25;;;768.80;1920.00;;;;;;5009323;28;20041;-70
2023/08/06 09:06:02;;;;;;;12.27;10.00;;;743.30;1971.20;;;;;;5009503;28;20037;-71
2023/08/06 09:08:35;;;;;;;11.20;7.30;;;743.00;2022.40;;;;;;5009890;28;20512;-70
2023/08/06 09:11:02;;;;;;;9.00;7.40;;;742.50;2099.20;;;;;;5013565;28;20133;-70
2023/08/06 09:13:28;;;;;;;61.65;53.67;;;717.60;2099.20;;;;;;5013222;28;20080;-70
2023/08/06 09:15:54;;;;;;;16.88;15.38;;;717.00;2150.40;;;;;;5013348;28;20029;-71
2023/08/06 09:18:39;;;;;;;10.63;9.48;;;716.80;2150.40;;;;;;5013406;28;20120;-71
2023/08/06 09:21:05;;;;;;;8.32;7.20;;;716.80;2201.60;;;;;;5013050;28;20555;-71
2023/08/06 09:23:33;;;;;;;9.73;8.80;;;692.10;2201.60;;;;;;5013420;28;20113;-71
2023/08/06 09:25:59;;;;;;;8.40;7.60;;;716.90;2201.60;;;;;;5012956;28;20034;-71
2023/08/06 09:28:36;;;;;;;6.97;6.28;;;717.00;2176.00;;;;;;5013167;28;20036;-71
2023/08/06 09:31:01;;;;;;;7.15;6.45;;;717.00;2176.00;;;;;;5013240;28;20050;-70
2023/08/06 09:33:29;;;;;;;6.53;5.93;;;717.60;2150.40;;;;;;5012989;28;20508;-71
2023/08/06 09:35:55;;;;;;;7.43;6.68;;;742.50;2124.80;;;;;;5013068;28;20040;-73
2023/08/06 09:38:20;;;;;;;6.53;5.93;;;742.50;2150.40;;;;;;5012980;28;20018;-72
2023/08/06 09:40:47;;;;;;;7.03;6.28;;;742.70;2099.20;;;;;;5012761;28;20033;-73
2023/08/06 09:43:13;;;;;;;6.40;5.80;;;742.50;2073.60;;;;;;5013148;28;20065;-73
2023/08/06 09:45:39;;;;;;;7.15;5.68;;;742.80;2073.60;;;;;;5012708;28;20053;-74
2023/08/06 09:48:06;;;;;;;7.03;6.38;;;743.00;2048.00;;;;;;5012565;28;20021;-71
2023/08/06 09:50:36;;;;;;;6.47;5.82;;;742.80;2073.60;;;;;;5012641;28;20472;-72
2023/08/06 09:53:03;;;;;;;7.35;5.68;;;742.50;2048.00;;;;;;5012730;28;20018;-71
2023/08/06 09:55:29;;;;;;;7.82;7.03;;;717.60;2022.40;;;;;;5012547;28;20265;-72
2023/08/06 09:57:55;;;;;;;8.45;6.95;;;717.50;2048.00;;;;;;5012704;28;20022;-71
2023/08/06 10:00:22;;;;;;;8.07;7.38;;;717.70;1996.80;;;;;;5012677;28;20030;-71
2023/08/06 10:02:49;;;;;;;9.75;7.75;;;717.20;2048.00;;;;;;5012386;28;20029;-72
2023/08/06 10:05:15;;;;;;;8.75;7.80;;;717.10;2124.80;;;;;;5012326;28;20077;-72
2023/08/06 10:07:43;;;;;;;8.63;7.75;;;716.90;2201.60;;;;;;5012552;28;20033;-71
2023/08/06 10:10:09;;;;;;;9.57;7.82;;;691.80;2252.80;;;;;;5012053;28;20104;-71
2023/08/06 10:12:47;;;;;;;9.75;8.70;;;691.50;2252.80;;;;;;5012502;28;20026;-72
2023/08/06 10:15:16;;;;;;;11.10;9.30;;;691.50;2252.80;;;;;;5012396;28;20118;-72
2023/08/06 10:17:44;;;;;;;17.88;9.73;;;691.20;2380.80;;;;;;5012401;28;20057;-72
2023/08/06 10:20:10;;;;;;;12.20;9.07;;;691.30;2380.80;;;;;;5011551;28;20061;-72
2023/08/06 10:22:36;;;;;;;10.98;9.45;;;666.30;2432.00;;;;;;5011871;28;20029;-72
2023/08/06 10:25:06;;;;;;;11.55;9.88;;;666.30;2432.00;;;;;;5012341;28;20034;-72
2023/08/06 10:27:39;;;;;;;13.48;9.15;;;666.10;2432.00;;;;;;5012309;28;20042;-72
2023/08/06 10:30:23;;;;;;;10.73;9.18;;;666.00;2432.00;;;;;;5012197;28;20503;-72
2023/08/06 10:32:51;;;;;;;14.18;10.30;;;665.90;2432.00;;;;;;5012009;28;20133;-71
2023/08/06 10:35:50;;;;;;;13.48;11.75;;;665.80;2432.00;;;;;;5011625;28;20101;-71
2023/08/06 10:38:23;;;;;;;22.65;19.65;;;665.90;2432.00;;;;;;5000369;28;20041;-72
2023/08/06 10:40:50;;;;;;;33.50;29.98;;;666.20;2432.00;;;;;;4990895;28;20548;-71
2023/08/06 10:43:33;;;;;;;39.22;35.08;;;666.50;2432.00;;;;;;4996313;28;20054;-72
2023/08/06 10:46:00;;;;;;;;;;;691.20;2432.00;;;;;;4997574;28;20566;-73
2023/08/06 10:48:45;;;;;;;12.30;10.55;;;666.50;2432.00;;;;;;4998063;28;20386;-73
2023/08/06 10:51:13;;;;;;;11.35;9.15;;;666.30;2432.00;;;;;;5003497;28;20025;-72
2023/08/06 10:53:43;;;;;;;11.10;9.40;;;665.70;2432.00;;;;;;5004128;28;20030;-70
2023/08/06 10:56:18;;;;;;;11.00;9.73;;;640.80;2432.00;;;;;;5011553;28;20022;-72
2023/08/06 10:58:46;;;;;;;10.93;9.82;;;640.70;2432.00;;;;;;5011636;28;20026;-71
2023/08/06 11:01:12;;;;;;;12.18;10.90;;;640.30;2432.00;;;;;;5011650;28;20057;-72
2023/08/06 11:03:39;;;;;;;13.85;11.65;;;615.20;2432.00;;;;;;5011143;28;20022;-71
2023/08/06 11:06:07;;;;;;;14.95;13.18;;;614.80;2432.00;;;;;;5011635;28;20435;-71
2023/08/06 11:08:37;;;;;;;12.80;11.45;;;614.40;2432.00;;;;;;5011379;28;20160;-72
2023/08/06 11:11:13;;;;;;;13.90;12.50;;;614.50;2432.00;;;;;;5011123;28;20057;-73
2023/08/06 11:13:43;;;;;;;12.05;10.75;;;614.40;2432.00;;;;;;5011128;28;20033;-71
2023/08/06 11:16:10;;;;;;;12.05;10.75;;;614.40;2432.00;;;;;;4998337;28;20030;-73
2023/08/06 11:18:36;;;;;;;10.55;9.27;;;589.60;2432.00;;;;;;4991557;28;20113;-72
2023/08/06 11:21:02;;;;;;;11.52;10.32;;;589.30;2432.00;;;;;;4991631;28;20027;-72
2023/08/06 11:23:29;;;;;;;12.60;11.32;;;589.30;2432.00;;;;;;4991454;28;20026;-72
2023/08/06 11:25:57;;;;;;;25.88;12.15;;;589.10;2432.00;;;;;;4991417;28;20745;-72
2023/08/06 11:28:23;;;;;;;18.02;14.02;;;588.90;2432.00;;;;;;4991571;28;20034;-72
2023/08/06 11:30:49;;;;;;;15.73;12.57;;;588.90;2432.00;;;;;;4973442;28;20100;-73
2023/08/06 11:33:25;;;;;;;13.85;10.25;;;588.90;2432.00;;;;;;4972784;28;20026;-72
2023/08/06 11:35:55;;;;;;;14.05;10.15;;;564.10;2432.00;;;;;;4991155;28;20070;-72
2023/08/06 11:38:20;;;;;;;9.95;7.80;;;564.10;2432.00;;;;;;4973286;28;20448;-74
2023/08/06 11:40:47;;;;;;;9.60;7.97;;;564.00;2432.00;;;;;;4990917;28;20038;-71
2023/08/06 11:43:14;;;;;;;10.68;8.18;;;564.00;2432.00;;;;;;4991097;28;20464;-72
2023/08/06 11:45:41;;;;;;;10.77;9.15;;;588.90;2432.00;;;;;;4990732;28;20157;-73
2023/08/06 11:48:10;;;;;;;11.70;8.77;;;589.00;2432.00;;;;;;4971492;28;20037;-72
2023/08/06 11:50:38;;;;;;;9.38;7.47;;;589.20;2432.00;;;;;;4971254;28;20102;-73
2023/08/06 11:53:04;;;;;;;12.10;10.63;;;589.30;2432.00;;;;;;4971537;28;20027;-73
2023/08/06 11:55:30;;;;;;;10.13;8.70;;;588.90;2432.00;;;;;;4971558;28;20531;-72
2023/08/06 11:57:57;;;;;;;11.68;7.47;;;588.80;2432.00;;;;;;4971337;28;20034;-72
2023/08/06 12:00:24;;;;;;;9.82;7.97;;;564.00;2432.00;;;;;;4971619;28;20030;-72
2023/08/06 12:02:52;;;;;;;10.27;6.97;;;564.10;2432.00;;;;;;4971385;28;20042;-73
2023/08/06 12:05:25;;;;;;;10.15;7.03;;;588.90;2432.00;;;;;;4971367;28;20048;-72
2023/08/06 12:07:57;;;;;;;;;;;589.00;2432.00;;;;;;4990968;28;20053;-73
2023/08/06 12:10:25;;;;;;;13.23;7.53;;;588.90;2432.00;;;;;;4991315;28;20024;-73
2023/08/06 12:12:51;;;;;;;11.02;7.78;;;589.20;2432.00;;;;;;4993016;28;20168;-73
2023/08/06 12:15:18;;;;;;;11.68;8.68;;;589.40;2432.00;;;;;;4990087;28;20026;-72
2023/08/06 12:17:44;;;;;;;8.85;7.95;;;614.40;2432.00;;;;;;4990163;28;20481;-72